Golden Taka — H8EM — position and weather

sailwx.info

Track history (hours):
 
Tides and Currents Weather Stations Pressure Air Temp Water Temp Dewpoint Dewpoint Depression Visibility Wind Speed Wind Dir Waves Ship Positions

Golden Taka

Last reported at 2017-Sep-21 03:39 UTC. Time now 2017-Sep-23 14:51 UTC.
Position N 31°06' E 122°19'.

Length 144 m; draft 9.4 m.

Type: Ship (hazmat cat B). MMSI: 357039000.

Date/timePositionNaut miles runAvg speedWind from/ knotsBaromVisibWave heightAir tempDewpointWater temp
2017-Sep-21 03:39N 31°06' E 122°19'7 9.9
2017-Sep-21 02:56N 31°10' E 122°12'4 8.8
2017-Sep-21 02:26N 31°13' E 122°08'4 8.8
2017-Sep-21 02:00N 31°14' E 122°04'5 9.6
2017-Sep-21 01:30N 31°15' E 121°58'611.8
2017-Sep-21 01:00N 31°16' E 121°51'713.3
2017-Sep-21 00:30N 31°19' E 121°44'611.4
2017-Sep-21 00:00N 31°21' E 121°38'611.7
2017-Sep-20 23:30N 31°24' E 121°32'510.4
2017-Sep-20 23:00N 31°28' E 121°28'611.3
2017-Sep-20 22:30N 31°31' E 121°23'3 6.3
2017-Sep-20 22:00N 31°34' E 121°20'0 0.0
2017-Sep-20 21:27N 31°34' E 121°20'0 0.0
2017-Sep-20 20:57N 31°34' E 121°20'0 0.0
2017-Sep-20 20:27N 31°34' E 121°20'0 0.0
2017-Sep-20 19:57N 31°34' E 121°20'0 0.2
2017-Sep-20 19:27N 31°34' E 121°20'0 0.2
2017-Sep-20 18:57N 31°34' E 121°20'0 0.0
2017-Sep-20 18:27N 31°34' E 121°20'0 0.0
2017-Sep-20 17:51N 31°34' E 121°20'0 0.0
2017-Sep-20 17:27N 31°34' E 121°20'0 0.1
2017-Sep-20 16:57N 31°34' E 121°20'0 0.0
2017-Sep-20 16:27N 31°34' E 121°20'0 0.1
2017-Sep-20 15:39N 31°34' E 121°20'0 0.0
2017-Sep-20 15:09N 31°34' E 121°20'0 0.1
2017-Sep-20 15:00N 31°34' E 121°20'0 0.1
2017-Sep-20 14:00N 31°34' E 121°20'0 0.1
2017-Sep-20 13:30N 31°34' E 121°20'0 0.0
2017-Sep-20 13:00N 31°34' E 121°20'0 0.0
2017-Sep-20 12:30N 31°34' E 121°20'0 0.7
2017-Sep-20 12:00N 31°34' E 121°20'611.7
2017-Sep-20 11:30N 31°38' E 121°15'814.5
2017-Sep-20 10:59N 31°42' E 121°08'814.2
2017-Sep-20 10:25N 31°47' E 120°60'2911.2
2017-Sep-20 07:48N 32°02' E 120°30'310.4
2017-Sep-20 07:30N 32°02' E 120°27'1 0.1
2017-Sep-19 08:56N 32°00' E 120°27'1 3.3
2017-Sep-19 08:30N 32°02' E 120°27'3110.6
2017-Sep-19 05:34N 31°47' E 120°59'113.2
2017-Sep-19 05:28N 31°47' E 121°01'714.4
2017-Sep-19 04:59N 31°43' E 121°08'714.8
2017-Sep-19 04:30N 31°39' E 121°14'714.5
2017-Sep-19 04:00N 31°33' E 121°20'611.8
2017-Sep-19 03:30N 31°30' E 121°25'611.6
2017-Sep-19 03:00N 31°26' E 121°30'510.6
2017-Sep-19 02:30N 31°23' E 121°35'611.3
2017-Sep-19 02:00N 31°20' E 121°41'611.7
2017-Sep-19 01:30N 31°16' E 121°46'714.9
2017-Sep-19 01:00N 31°10' E 121°51'714.2
2017-Sep-19 00:30N 31°06' E 121°58'611.8
2017-Sep-19 00:00N 31°04' E 122°05'713.7
2017-Sep-18 23:29N 31°03' E 122°13'4 7.6
2017-Sep-18 22:56N 31°03' E 122°18'4 8.9
2017-Sep-18 22:30N 31°02' E 122°22'510.0
2017-Sep-18 22:00N 31°01' E 122°28'713.4
2017-Sep-18 21:30N 30°60' E 122°36'611.7
2017-Sep-18 20:59N 31°01' E 122°42'3 3.0
2017-Sep-18 19:54N 31°03' E 122°46'0 0.0
2017-Sep-18 19:15N 31°03' E 122°46'0 0.0
2017-Sep-18 17:00N 31°03' E 122°46'0 0.1
2017-Sep-18 16:18N 31°03' E 122°46'0 0.0
2017-Sep-18 13:36N 31°03' E 122°46'121 5.6
2017-Sep-17 15:49N 32°54' E 123°44'512.8
2017-Sep-17 15:26N 32°58' E 123°47'712.8
2017-Sep-17 14:53N 33°05' E 123°51'513.1
2017-Sep-17 14:30N 33°09' E 123°54'  
Track history (hours):
 
Tides and Currents Weather Stations Pressure Air Temp Water Temp Dewpoint Dewpoint Depression Visibility Wind Speed Wind Dir Waves Ship Positions

Golden Taka

Last reported at 2017-Sep-21 03:39 UTC. Time now 2017-Sep-23 14:51 UTC.
Position N 31°06' E 122°19'.

Length 144 m; draft 9.4 m.

Type: Ship (hazmat cat B). MMSI: 357039000.

Date/timePositionNaut miles runAvg speedWind from/ knotsBaromVisibWave heightAir tempDewpointWater temp
2017-Sep-21 03:39N 31°06' E 122°19'7 9.9
2017-Sep-21 02:56N 31°10' E 122°12'4 8.8
2017-Sep-21 02:26N 31°13' E 122°08'4 8.8
2017-Sep-21 02:00N 31°14' E 122°04'5 9.6
2017-Sep-21 01:30N 31°15' E 121°58'611.8
2017-Sep-21 01:00N 31°16' E 121°51'713.3
2017-Sep-21 00:30N 31°19' E 121°44'611.4
2017-Sep-21 00:00N 31°21' E 121°38'611.7
2017-Sep-20 23:30N 31°24' E 121°32'510.4
2017-Sep-20 23:00N 31°28' E 121°28'611.3
2017-Sep-20 22:30N 31°31' E 121°23'3 6.3
2017-Sep-20 22:00N 31°34' E 121°20'0 0.0
2017-Sep-20 21:27N 31°34' E 121°20'0 0.0
2017-Sep-20 20:57N 31°34' E 121°20'0 0.0
2017-Sep-20 20:27N 31°34' E 121°20'0 0.0
2017-Sep-20 19:57N 31°34' E 121°20'0 0.2
2017-Sep-20 19:27N 31°34' E 121°20'0 0.2
2017-Sep-20 18:57N 31°34' E 121°20'0 0.0
2017-Sep-20 18:27N 31°34' E 121°20'0 0.0
2017-Sep-20 17:51N 31°34' E 121°20'0 0.0
2017-Sep-20 17:27N 31°34' E 121°20'0 0.1
2017-Sep-20 16:57N 31°34' E 121°20'0 0.0
2017-Sep-20 16:27N 31°34' E 121°20'0 0.1
2017-Sep-20 15:39N 31°34' E 121°20'0 0.0
2017-Sep-20 15:09N 31°34' E 121°20'0 0.1
2017-Sep-20 15:00N 31°34' E 121°20'0 0.1
2017-Sep-20 14:00N 31°34' E 121°20'0 0.1
2017-Sep-20 13:30N 31°34' E 121°20'0 0.0
2017-Sep-20 13:00N 31°34' E 121°20'0 0.0
2017-Sep-20 12:30N 31°34' E 121°20'0 0.7
2017-Sep-20 12:00N 31°34' E 121°20'611.7
2017-Sep-20 11:30N 31°38' E 121°15'814.5
2017-Sep-20 10:59N 31°42' E 121°08'814.2
2017-Sep-20 10:25N 31°47' E 120°60'2911.2
2017-Sep-20 07:48N 32°02' E 120°30'310.4
2017-Sep-20 07:30N 32°02' E 120°27'1 0.1
2017-Sep-19 08:56N 32°00' E 120°27'1 3.3
2017-Sep-19 08:30N 32°02' E 120°27'3110.6
2017-Sep-19 05:34N 31°47' E 120°59'113.2
2017-Sep-19 05:28N 31°47' E 121°01'714.4
2017-Sep-19 04:59N 31°43' E 121°08'714.8
2017-Sep-19 04:30N 31°39' E 121°14'714.5
2017-Sep-19 04:00N 31°33' E 121°20'611.8
2017-Sep-19 03:30N 31°30' E 121°25'611.6
2017-Sep-19 03:00N 31°26' E 121°30'510.6
2017-Sep-19 02:30N 31°23' E 121°35'611.3
2017-Sep-19 02:00N 31°20' E 121°41'611.7
2017-Sep-19 01:30N 31°16' E 121°46'714.9
2017-Sep-19 01:00N 31°10' E 121°51'714.2
2017-Sep-19 00:30N 31°06' E 121°58'611.8
2017-Sep-19 00:00N 31°04' E 122°05'713.7
2017-Sep-18 23:29N 31°03' E 122°13'4 7.6
2017-Sep-18 22:56N 31°03' E 122°18'4 8.9
2017-Sep-18 22:30N 31°02' E 122°22'510.0
2017-Sep-18 22:00N 31°01' E 122°28'713.4
2017-Sep-18 21:30N 30°60' E 122°36'611.7
2017-Sep-18 20:59N 31°01' E 122°42'3 3.0
2017-Sep-18 19:54N 31°03' E 122°46'0 0.0
2017-Sep-18 19:15N 31°03' E 122°46'0 0.0
2017-Sep-18 17:00N 31°03' E 122°46'0 0.1
2017-Sep-18 16:18N 31°03' E 122°46'0 0.0
2017-Sep-18 13:36N 31°03' E 122°46'121 5.6
2017-Sep-17 15:49N 32°54' E 123°44'512.8
2017-Sep-17 15:26N 32°58' E 123°47'712.8
2017-Sep-17 14:53N 33°05' E 123°51'513.1
2017-Sep-17 14:30N 33°09' E 123°54'  

Dump ship's entire track history